createdAt,value
2018-04-29T00:00:02.049Z,4.25
2018-04-29T00:02:29.562Z,3.03
2018-04-29T00:04:56.990Z,3.55
2018-04-29T00:07:24.411Z,3.12
2018-04-29T00:09:51.838Z,3.80
2018-04-29T00:12:20.023Z,6.03
2018-04-29T00:14:48.247Z,4.28
2018-04-29T00:17:15.667Z,3.60
2018-04-29T00:19:43.090Z,4.85
2018-04-29T00:22:10.547Z,4.32
2018-04-29T00:24:38.023Z,3.40
2018-04-29T00:27:05.442Z,2.87
2018-04-29T00:29:32.866Z,3.67
2018-04-29T00:32:00.286Z,4.57
2018-04-29T00:34:27.793Z,4.65
2018-04-29T00:36:55.267Z,3.78
2018-04-29T00:39:22.690Z,5.60
2018-04-29T00:41:50.350Z,4.28
2018-04-29T00:44:17.754Z,2.75
2018-04-29T00:46:45.942Z,4.22
2018-04-29T00:49:14.150Z,3.95
2018-04-29T00:51:53.705Z,2.08
2018-04-29T00:54:21.130Z,6.35
2018-04-29T00:56:48.550Z,3.20
2018-04-29T00:59:15.978Z,5.18
2018-04-29T01:01:44.157Z,5.40
2018-04-29T01:04:13.102Z,6.85
2018-04-29T01:06:40.519Z,6.60
2018-04-29T01:09:08.047Z,3.92
2018-04-29T01:11:35.458Z,4.28
2018-04-29T01:14:02.889Z,4.07
2018-04-29T01:16:31.371Z,5.37
2018-04-29T01:18:58.794Z,4.32
2018-04-29T01:21:26.214Z,4.40
2018-04-29T01:23:53.681Z,2.72
2018-04-29T01:26:21.150Z,6.47
2018-04-29T01:28:48.567Z,5.35
2018-04-29T01:31:15.999Z,4.18
2018-04-29T01:33:43.413Z,3.45
2018-04-29T01:36:10.838Z,3.92
2018-04-29T01:38:38.264Z,2.97
2018-04-29T01:41:06.582Z,5.40
2018-04-29T01:43:34.055Z,6.75
2018-04-29T01:46:01.528Z,1.80
2018-04-29T01:48:28.937Z,4.32
2018-04-29T01:50:56.465Z,7.45
2018-04-29T01:53:23.935Z,2.08
2018-04-29T01:55:51.358Z,2.12
2018-04-29T01:58:18.877Z,2.37
2018-04-29T02:00:46.356Z,3.65
2018-04-29T02:03:13.761Z,2.12
2018-04-29T02:05:41.185Z,4.75
2018-04-29T02:08:08.650Z,3.25
2018-04-29T02:10:36.127Z,5.25
2018-04-29T02:13:03.537Z,4.95
2018-04-29T02:15:30.966Z,5.45
2018-04-29T02:17:58.386Z,3.65
2018-04-29T02:20:25.894Z,3.10
2018-04-29T02:22:53.390Z,4.47
2018-04-29T02:25:20.817Z,3.78
2018-04-29T02:27:49.026Z,2.95
2018-04-29T02:30:16.454Z,3.33
2018-04-29T02:32:44.656Z,5.50
2018-04-29T02:35:12.846Z,5.40
2018-04-29T02:37:41.056Z,4.05
2018-04-29T02:40:08.534Z,5.62
2018-04-29T02:42:35.996Z,3.08
2018-04-29T02:45:03.471Z,2.95
2018-04-29T02:47:30.885Z,5.68
2018-04-29T02:49:58.407Z,2.85
2018-04-29T02:52:25.830Z,3.20
2018-04-29T02:54:53.257Z,3.03
2018-04-29T02:57:20.711Z,4.60
2018-04-29T02:59:48.134Z,5.07
2018-04-29T03:02:15.553Z,3.47
2018-04-29T03:04:42.971Z,4.40
2018-04-29T03:07:10.504Z,4.50
2018-04-29T03:09:37.922Z,2.58
2018-04-29T03:12:05.346Z,9.48
2018-04-29T03:14:32.773Z,6.10
2018-04-29T03:17:00.958Z,4.57
2018-04-29T03:19:29.142Z,5.22
2018-04-29T03:21:57.358Z,5.25
2018-04-29T03:24:24.827Z,5.20
2018-04-29T03:26:52.302Z,5.62
2018-04-29T03:29:19.714Z,4.87
2018-04-29T03:31:47.910Z,5.78
2018-04-29T03:34:15.424Z,5.93
2018-04-29T03:36:42.846Z,4.37
2018-04-29T03:39:11.217Z,5.30
2018-04-29T03:41:38.762Z,2.75
2018-04-29T03:44:06.223Z,4.43
2018-04-29T03:46:33.695Z,5.20
2018-04-29T03:49:02.019Z,4.87
2018-04-29T03:51:29.451Z,5.65
2018-04-29T03:53:56.925Z,7.90
2018-04-29T03:56:24.350Z,6.15
2018-04-29T03:59:03.702Z,5.80
2018-04-29T04:01:51.284Z,6.30
2018-04-29T04:04:11.301Z,5.43
2018-04-29T04:06:38.710Z,4.00
2018-04-29T04:09:07.077Z,5.55
2018-04-29T04:11:34.610Z,5.53
2018-04-29T04:14:02.079Z,6.80
2018-04-29T04:16:29.505Z,7.07
2018-04-29T04:18:57.027Z,9.10
2018-04-29T04:21:24.499Z,4.20
2018-04-29T04:23:51.966Z,5.18
2018-04-29T04:26:19.394Z,6.68
2018-04-29T04:28:47.588Z,9.02
2018-04-29T04:31:15.809Z,5.45
2018-04-29T04:33:43.222Z,10.02
2018-04-29T04:36:10.654Z,5.70
2018-04-29T04:38:38.120Z,6.47
2018-04-29T04:41:05.687Z,5.30
2018-04-29T04:43:33.110Z,10.68
2018-04-29T04:46:00.550Z,10.52
2018-04-29T04:48:27.970Z,10.00
2018-04-29T04:50:56.167Z,9.18
2018-04-29T04:53:23.646Z,9.13
2018-04-29T04:55:51.070Z,11.20
2018-04-29T04:58:18.494Z,7.95
2018-04-29T05:00:45.922Z,8.68
2018-04-29T05:03:14.116Z,8.90
2018-04-29T05:05:42.304Z,8.65
2018-04-29T05:08:10.489Z,8.57
2018-04-29T05:10:38.683Z,10.23
2018-04-29T05:13:06.936Z,14.02
2018-04-29T05:15:34.479Z,10.07
2018-04-29T05:18:01.933Z,9.27
2018-04-29T05:20:29.362Z,11.40
2018-04-29T05:22:56.870Z,8.95
2018-04-29T05:25:24.290Z,12.93
2018-04-29T05:27:51.723Z,14.40
2018-04-29T05:30:19.177Z,10.55
2018-04-29T05:32:46.656Z,10.25
2018-04-29T05:35:14.074Z,14.70
2018-04-29T05:37:41.595Z,13.65
2018-04-29T05:40:09.066Z,12.75
2018-04-29T05:42:36.494Z,11.98
2018-04-29T05:45:04.720Z,16.20
2018-04-29T05:47:32.152Z,10.35
2018-04-29T05:49:59.659Z,11.12
2018-04-29T05:52:27.081Z,22.80
2018-04-29T05:54:54.609Z,11.38
2018-04-29T05:57:22.034Z,18.02
2018-04-29T05:59:50.254Z,11.90
2018-04-29T06:02:17.682Z,15.10
2018-04-29T06:04:45.107Z,16.60
2018-04-29T06:07:12.527Z,15.65
2018-04-29T06:09:40.750Z,14.20
2018-04-29T06:12:08.183Z,17.83
2018-04-29T06:14:36.405Z,15.68
2018-04-29T06:17:03.831Z,13.15
2018-04-29T06:19:31.255Z,12.77
2018-04-29T06:21:58.707Z,13.10
2018-04-29T06:24:26.134Z,15.07
2018-04-29T06:26:53.647Z,15.63
2018-04-29T06:29:21.123Z,17.02
2018-04-29T06:31:48.621Z,15.75
2018-04-29T06:34:16.021Z,19.37
2018-04-29T06:36:43.530Z,14.35
2018-04-29T06:39:11.927Z,15.40
2018-04-29T06:41:39.358Z,19.33
2018-04-29T06:44:07.555Z,14.23
2018-04-29T06:46:35.751Z,13.65
2018-04-29T06:49:03.930Z,15.70
2018-04-29T06:51:32.130Z,14.10
2018-04-29T06:53:59.554Z,15.93
2018-04-29T06:56:26.975Z,11.05
2018-04-29T06:58:54.405Z,15.20
2018-04-29T07:01:21.829Z,12.93
2018-04-29T07:03:49.290Z,15.25
2018-04-29T07:06:16.759Z,12.90
2018-04-29T07:08:44.178Z,14.13
2018-04-29T07:11:11.610Z,13.55
2018-04-29T07:13:39.067Z,10.65
2018-04-29T07:16:06.546Z,15.27
2018-04-29T07:18:33.970Z,15.48
2018-04-29T07:21:02.167Z,16.73
2018-04-29T07:23:30.354Z,11.90
2018-04-29T07:25:58.624Z,16.17
2018-04-29T07:28:25.989Z,12.77
2018-04-29T07:30:54.939Z,16.85
2018-04-29T07:33:22.409Z,14.05
2018-04-29T07:35:49.830Z,18.50
2018-04-29T07:38:18.034Z,14.13
2018-04-29T07:40:46.225Z,15.18
2018-04-29T07:43:14.419Z,14.13
2018-04-29T07:45:42.623Z,17.52
2018-04-29T07:48:10.055Z,13.60
2018-04-29T07:50:37.486Z,17.80
2018-04-29T07:53:04.913Z,15.00
2018-04-29T07:55:32.410Z,13.32
2018-04-29T07:57:59.834Z,22.20
2018-04-29T08:00:28.023Z,18.12
2018-04-29T08:02:56.218Z,15.63
2018-04-29T08:05:24.410Z,19.55
2018-04-29T08:07:52.606Z,13.35
2018-04-29T08:10:20.090Z,13.43
2018-04-29T08:12:47.522Z,10.38
2018-04-29T08:15:15.711Z,15.95
2018-04-29T08:17:43.938Z,15.50
2018-04-29T08:20:11.398Z,13.15
2018-04-29T08:22:38.905Z,12.10
2018-04-29T08:25:06.338Z,19.55
2018-04-29T08:27:33.772Z,14.75
2018-04-29T08:30:01.240Z,13.05
2018-04-29T08:32:28.667Z,11.95
2018-04-29T08:34:56.072Z,15.63
2018-04-29T08:37:23.586Z,14.15
2018-04-29T08:39:51.062Z,18.48
2018-04-29T08:42:18.515Z,15.45
2018-04-29T08:44:46.694Z,11.90
2018-04-29T08:47:14.893Z,15.65
2018-04-29T08:49:42.378Z,12.68
2018-04-29T08:52:09.850Z,11.43
2018-04-29T08:54:37.266Z,13.65
2018-04-29T08:57:05.503Z,11.23
2018-04-29T08:59:32.926Z,10.48
2018-04-29T09:02:00.442Z,11.12
2018-04-29T09:04:27.857Z,10.38
2018-04-29T09:06:55.391Z,12.02
2018-04-29T09:09:22.803Z,9.02
2018-04-29T09:11:51.031Z,13.90
2018-04-29T09:14:18.456Z,11.63
2018-04-29T09:16:46.065Z,12.23
2018-04-29T09:19:13.442Z,14.90
2018-04-29T09:21:40.865Z,8.48
2018-04-29T09:24:08.297Z,12.15
2018-04-29T09:26:35.713Z,9.93
2018-04-29T09:29:04.958Z,9.73
2018-04-29T09:31:32.435Z,14.80
2018-04-29T09:33:59.855Z,9.63
2018-04-29T09:36:27.280Z,16.40
2018-04-29T09:38:54.710Z,13.25
2018-04-29T09:41:22.894Z,17.20
2018-04-29T09:43:51.086Z,13.75
2018-04-29T09:46:19.303Z,15.32
2018-04-29T09:48:46.743Z,17.92
2018-04-29T09:51:14.959Z,12.20
2018-04-29T09:53:42.390Z,13.65
2018-04-29T09:56:09.903Z,12.90
2018-04-29T09:58:37.334Z,15.38
2018-04-29T10:01:11.195Z,10.52
2018-04-29T10:03:38.658Z,16.60
2018-04-29T10:06:06.083Z,11.02
2018-04-29T10:08:34.314Z,12.48
2018-04-29T10:11:01.729Z,10.35
2018-04-29T10:13:29.255Z,9.80
2018-04-29T10:15:56.723Z,12.63
2018-04-29T10:18:24.195Z,10.10
2018-04-29T10:20:51.658Z,7.20
2018-04-29T10:23:19.043Z,11.57
2018-04-29T10:25:46.497Z,11.60
2018-04-29T10:28:13.968Z,4.75
2018-04-29T10:30:41.383Z,9.80
2018-04-29T10:33:10.317Z,11.07
2018-04-29T10:35:38.510Z,4.60
2018-04-29T10:38:06.718Z,8.68
2018-04-29T10:40:34.138Z,5.03
2018-04-29T10:43:01.566Z,6.35
2018-04-29T10:45:29.021Z,5.57
2018-04-29T10:47:56.450Z,6.40
2018-04-29T10:50:23.962Z,6.25
2018-04-29T10:52:51.387Z,4.07
2018-04-29T10:55:18.807Z,5.28
2018-04-29T10:57:46.271Z,6.37
2018-04-29T11:00:13.689Z,5.43
2018-04-29T11:02:41.119Z,7.20
2018-04-29T11:05:08.542Z,7.15
2018-04-29T11:07:35.971Z,5.20
2018-04-29T11:10:03.396Z,3.80
2018-04-29T11:12:31.577Z,3.60
2018-04-29T11:14:59.789Z,3.35
2018-04-29T11:17:27.210Z,4.97
2018-04-29T11:19:54.639Z,4.18
2018-04-29T11:22:22.073Z,2.35
2018-04-29T11:24:50.254Z,5.05
2018-04-29T11:27:18.469Z,8.32
2018-04-29T11:29:45.882Z,4.18
2018-04-29T11:32:13.306Z,4.62
2018-04-29T11:34:40.721Z,3.95
2018-04-29T11:37:08.150Z,2.37
2018-04-29T11:39:35.611Z,2.72
2018-04-29T11:42:03.042Z,2.70
2018-04-29T11:44:30.471Z,7.78
2018-04-29T11:46:57.886Z,3.70
2018-04-29T11:49:25.303Z,7.25
2018-04-29T11:51:52.719Z,3.20
2018-04-29T11:54:20.150Z,3.10
2018-04-29T11:56:47.599Z,3.35
2018-04-29T11:59:15.067Z,6.82
2018-04-29T12:01:42.534Z,3.22
2018-04-29T12:04:09.957Z,3.55
2018-04-29T12:06:37.378Z,5.30
2018-04-29T12:09:04.831Z,3.75
2018-04-29T12:11:32.255Z,14.00
2018-04-29T12:13:59.686Z,4.12
2018-04-29T12:16:27.166Z,3.65
2018-04-29T12:18:54.575Z,3.95
2018-04-29T12:21:21.998Z,4.35
2018-04-29T12:23:49.420Z,3.85
2018-04-29T12:26:17.610Z,5.65
2018-04-29T12:28:45.835Z,4.97
2018-04-29T12:31:13.246Z,3.83
2018-04-29T12:33:40.682Z,5.25
2018-04-29T12:36:08.095Z,5.35
2018-04-29T12:38:35.617Z,3.42
2018-04-29T12:41:03.998Z,3.78
2018-04-29T12:43:31.494Z,4.35
2018-04-29T12:45:58.919Z,6.37
2018-04-29T12:48:27.126Z,4.87
2018-04-29T12:50:54.600Z,3.78
2018-04-29T12:53:22.066Z,3.60
2018-04-29T12:55:49.489Z,3.70
2018-04-29T12:58:16.913Z,3.35
2018-04-29T13:00:44.374Z,3.58
2018-04-29T13:03:11.798Z,6.60
2018-04-29T13:05:39.326Z,5.65
2018-04-29T13:08:06.742Z,3.60
2018-04-29T13:10:34.254Z,6.00
2018-04-29T13:13:01.721Z,4.30
2018-04-29T13:15:29.145Z,5.55
2018-04-29T13:17:56.578Z,4.50
2018-04-29T13:20:23.990Z,4.80
2018-04-29T13:22:52.205Z,3.47
2018-04-29T13:25:19.693Z,3.03
2018-04-29T13:27:47.156Z,3.35
2018-04-29T13:30:14.578Z,5.10
2018-04-29T13:32:42.103Z,4.65
2018-04-29T13:35:09.521Z,7.22
2018-04-29T13:37:36.949Z,10.60
2018-04-29T13:40:04.366Z,8.65
2018-04-29T13:42:32.562Z,7.50
2018-04-29T13:45:00.742Z,4.35
2018-04-29T13:47:28.929Z,5.57
2018-04-29T13:49:57.126Z,5.07
2018-04-29T13:52:25.342Z,3.83
2018-04-29T13:54:52.806Z,4.70
2018-04-29T13:57:20.275Z,4.07
2018-04-29T13:59:47.705Z,4.35
2018-04-29T14:02:15.126Z,7.82
2018-04-29T14:04:42.567Z,6.60
2018-04-29T14:07:10.840Z,6.43
2018-04-29T14:09:38.938Z,6.20
2018-04-29T14:12:07.255Z,3.65
2018-04-29T14:14:34.716Z,5.57
2018-04-29T14:17:02.129Z,6.18
2018-04-29T14:19:29.558Z,6.00
2018-04-29T14:21:56.977Z,3.17
2018-04-29T14:24:24.490Z,7.10
2018-04-29T14:26:51.969Z,3.55
2018-04-29T14:29:19.389Z,7.85
2018-04-29T14:31:46.905Z,4.78
2018-04-29T14:34:14.378Z,5.10
2018-04-29T14:36:41.817Z,4.55
2018-04-29T14:39:09.316Z,4.65
2018-04-29T14:41:36.729Z,6.93
2018-04-29T14:44:04.154Z,5.93
2018-04-29T14:46:31.620Z,6.70
2018-04-29T14:48:59.146Z,2.65
2018-04-29T14:51:26.567Z,7.82
2018-04-29T14:53:53.993Z,4.90
2018-04-29T14:56:23.238Z,3.55
2018-04-29T14:58:50.662Z,4.97
2018-04-29T15:01:18.137Z,5.97
2018-04-29T15:03:45.547Z,8.90
2018-04-29T15:06:13.017Z,7.10
2018-04-29T15:08:40.491Z,7.50
2018-04-29T15:11:07.959Z,4.65
2018-04-29T15:13:35.386Z,7.90
2018-04-29T15:16:02.835Z,6.05
2018-04-29T15:18:42.138Z,4.15
2018-04-29T15:21:09.555Z,5.87
2018-04-29T15:23:36.978Z,6.90
2018-04-29T15:26:04.403Z,4.70
2018-04-29T15:28:31.922Z,2.78
2018-04-29T15:30:59.395Z,12.00
2018-04-29T15:33:26.813Z,3.40
2018-04-29T15:35:54.334Z,6.40
2018-04-29T15:38:21.759Z,2.50
2018-04-29T15:40:49.278Z,4.32
2018-04-29T15:43:16.742Z,4.47
2018-04-29T15:45:44.159Z,6.43
2018-04-29T15:48:11.590Z,6.03
2018-04-29T15:50:39.006Z,5.00
2018-04-29T15:53:06.434Z,3.25
2018-04-29T15:55:33.858Z,4.15
2018-04-29T15:58:02.058Z,7.50
2018-04-29T16:00:30.233Z,3.37
2018-04-29T16:02:58.418Z,4.95
2018-04-29T16:05:26.611Z,4.75
2018-04-29T16:07:54.794Z,8.68
2018-04-29T16:10:22.992Z,7.85
2018-04-29T16:12:50.476Z,3.65
2018-04-29T16:15:17.906Z,6.82
2018-04-29T16:17:45.334Z,10.65
2018-04-29T16:20:12.757Z,4.43
2018-04-29T16:22:40.945Z,3.70
2018-04-29T16:25:09.145Z,6.90
2018-04-29T16:27:36.558Z,7.93
2018-04-29T16:30:03.983Z,3.67
2018-04-29T16:32:31.410Z,7.68
2018-04-29T16:34:58.856Z,7.53
2018-04-29T16:37:26.282Z,15.07
2018-04-29T16:39:54.470Z,8.55
2018-04-29T16:42:22.663Z,5.57
2018-04-29T16:44:50.142Z,8.60
2018-04-29T16:47:17.614Z,5.30
2018-04-29T16:49:45.082Z,7.82
2018-04-29T16:52:12.510Z,3.50
2018-04-29T16:54:39.931Z,5.07
2018-04-29T16:57:07.350Z,4.20
2018-04-29T16:59:34.774Z,6.78
2018-04-29T17:02:02.195Z,2.75
2018-04-29T17:04:30.418Z,7.57
2018-04-29T17:06:57.882Z,5.37
2018-04-29T17:09:25.382Z,4.70
2018-04-29T17:11:52.822Z,5.93
2018-04-29T17:14:20.247Z,4.32
2018-04-29T17:16:47.664Z,2.95
2018-04-29T17:19:15.090Z,7.82
2018-04-29T17:21:42.603Z,7.25
2018-04-29T17:24:10.075Z,8.70
2018-04-29T17:26:37.550Z,6.00
2018-04-29T17:29:05.890Z,7.47
2018-04-29T17:31:33.454Z,6.95
2018-04-29T17:34:00.975Z,11.02
2018-04-29T17:36:28.406Z,3.10
2018-04-29T17:38:55.839Z,6.65
2018-04-29T17:41:23.291Z,5.87
2018-04-29T17:43:50.750Z,8.57
2018-04-29T17:46:18.167Z,9.75
2018-04-29T17:48:45.590Z,8.50
2018-04-29T17:51:13.010Z,5.12
2018-04-29T17:53:40.437Z,5.25
2018-04-29T17:56:07.911Z,5.90
2018-04-29T17:58:35.371Z,4.10
2018-04-29T18:01:02.786Z,6.30
2018-04-29T18:03:31.738Z,8.38
2018-04-29T18:05:59.213Z,6.70
2018-04-29T18:08:26.630Z,3.60
2018-04-29T18:11:00.170Z,5.07
2018-04-29T18:13:28.354Z,4.65
2018-04-29T18:15:56.567Z,7.65
2018-04-29T18:18:24.062Z,7.20
2018-04-29T18:20:51.485Z,4.82
2018-04-29T18:23:19.715Z,6.43
2018-04-29T18:25:47.141Z,5.57
2018-04-29T18:28:15.351Z,3.67
2018-04-29T18:30:42.783Z,6.18
2018-04-29T18:33:10.289Z,7.30
2018-04-29T18:35:37.763Z,4.50
2018-04-29T18:38:05.186Z,5.65
2018-04-29T18:40:32.618Z,6.25
2018-04-29T18:43:00.090Z,10.02
2018-04-29T18:45:27.514Z,3.87
2018-04-29T18:47:55.702Z,4.90
2018-04-29T18:50:23.902Z,6.35
2018-04-29T18:52:51.382Z,7.87
2018-04-29T18:55:18.812Z,6.43
2018-04-29T18:57:46.254Z,3.75
2018-04-29T19:00:13.795Z,7.30
2018-04-29T19:02:41.250Z,6.62
2018-04-29T19:05:09.447Z,5.87
2018-04-29T19:07:37.018Z,6.10
2018-04-29T19:10:04.442Z,6.30
2018-04-29T19:12:33.374Z,5.85
2018-04-29T19:15:01.579Z,3.78
2018-04-29T19:17:28.994Z,5.72
2018-04-29T19:19:56.523Z,7.87
2018-04-29T19:22:24.006Z,6.75
2018-04-29T19:24:51.426Z,5.95
2018-04-29T19:27:19.651Z,7.15
2018-04-29T19:29:47.074Z,9.02
2018-04-29T19:32:14.490Z,6.78
2018-04-29T19:34:41.922Z,3.78
2018-04-29T19:37:10.126Z,5.95
2018-04-29T19:39:37.562Z,10.00
2018-04-29T19:42:04.984Z,3.58
2018-04-29T19:44:32.406Z,4.43
2018-04-29T19:46:59.832Z,9.93
2018-04-29T19:49:27.263Z,8.98
2018-04-29T19:51:55.478Z,9.48
2018-04-29T19:54:22.945Z,4.37
2018-04-29T19:56:50.362Z,6.87
2018-04-29T19:59:17.782Z,7.43
2018-04-29T20:01:45.204Z,7.20
2018-04-29T20:04:12.670Z,6.57
2018-04-29T20:06:40.099Z,6.62
2018-04-29T20:09:07.562Z,4.35
2018-04-29T20:11:35.057Z,8.30
2018-04-29T20:14:02.454Z,3.95
2018-04-29T20:16:29.870Z,8.18
2018-04-29T20:18:57.290Z,7.07
2018-04-29T20:21:24.710Z,5.53
2018-04-29T20:23:52.166Z,4.53
2018-04-29T20:26:20.466Z,7.90
2018-04-29T20:28:47.883Z,7.22
2018-04-29T20:31:15.306Z,6.93
2018-04-29T20:33:42.734Z,10.35
2018-04-29T20:36:10.958Z,8.95
2018-04-29T20:38:38.431Z,9.35
2018-04-29T20:41:05.858Z,6.03
2018-04-29T20:43:33.371Z,5.03
2018-04-29T20:46:00.803Z,5.65
2018-04-29T20:48:29.052Z,7.40
2018-04-29T20:50:57.178Z,7.03
2018-04-29T20:53:25.370Z,5.32
2018-04-29T20:55:53.613Z,8.70
2018-04-29T20:58:21.032Z,9.13
2018-04-29T21:00:49.218Z,6.25
2018-04-29T21:03:17.454Z,4.25
2018-04-29T21:05:44.879Z,6.00
2018-04-29T21:08:13.087Z,6.03
2018-04-29T21:10:40.514Z,8.10
2018-04-29T21:13:08.036Z,4.22
2018-04-29T21:15:35.454Z,6.00
2018-04-29T21:18:03.637Z,6.45
2018-04-29T21:20:31.068Z,9.25
2018-04-29T21:22:58.484Z,7.60
2018-04-29T21:25:26.703Z,7.60
2018-04-29T21:27:54.122Z,14.48
2018-04-29T21:30:21.558Z,7.10
2018-04-29T21:32:49.001Z,7.82
2018-04-29T21:35:16.496Z,9.18
2018-04-29T21:37:43.974Z,5.93
2018-04-29T21:40:11.402Z,5.82
2018-04-29T21:42:39.614Z,8.90
2018-04-29T21:45:07.051Z,8.73
2018-04-29T21:47:35.278Z,8.05
2018-04-29T21:50:02.739Z,4.82
2018-04-29T21:52:30.151Z,7.30
2018-04-29T21:54:59.098Z,11.35
2018-04-29T21:57:27.293Z,10.40
2018-04-29T21:59:54.774Z,7.32
2018-04-29T22:02:22.234Z,9.30
2018-04-29T22:04:49.658Z,6.50
2018-04-29T22:07:17.174Z,5.50
2018-04-29T22:09:44.601Z,7.45
2018-04-29T22:12:12.118Z,5.50
2018-04-29T22:14:39.554Z,5.60
2018-04-29T22:17:07.771Z,8.70
2018-04-29T22:19:35.239Z,4.22
2018-04-29T22:22:02.658Z,8.05
2018-04-29T22:24:30.082Z,4.70
2018-04-29T22:26:57.510Z,6.25
2018-04-29T22:29:25.020Z,7.53
2018-04-29T22:31:52.442Z,6.87
2018-04-29T22:34:19.857Z,5.32
2018-04-29T22:36:47.286Z,5.62
2018-04-29T22:39:14.702Z,8.10
2018-04-29T22:41:42.154Z,10.00
2018-04-29T22:44:10.354Z,5.47
2018-04-29T22:46:37.821Z,5.57
2018-04-29T22:49:05.294Z,10.65
2018-04-29T22:51:32.718Z,9.20
2018-04-29T22:54:00.139Z,8.85
2018-04-29T22:56:27.598Z,6.07
2018-04-29T22:58:55.010Z,8.75
2018-04-29T23:01:23.946Z,7.90
2018-04-29T23:03:52.214Z,5.72
2018-04-29T23:06:19.581Z,5.97
2018-04-29T23:08:47.007Z,5.15
2018-04-29T23:11:14.430Z,9.60
2018-04-29T23:13:42.620Z,8.35
2018-04-29T23:16:10.823Z,10.43
2018-04-29T23:18:39.005Z,11.02
2018-04-29T23:21:07.194Z,5.30
2018-04-29T23:23:34.682Z,5.60
2018-04-29T23:26:02.155Z,9.88
2018-04-29T23:28:29.570Z,8.23
2018-04-29T23:30:57.090Z,7.53
2018-04-29T23:33:24.505Z,8.82
2018-04-29T23:35:51.930Z,9.43
2018-04-29T23:38:19.346Z,8.45
2018-04-29T23:40:46.866Z,9.40
2018-04-29T23:43:14.282Z,7.00
2018-04-29T23:45:41.807Z,11.38
2018-04-29T23:48:09.228Z,12.25
2018-04-29T23:50:37.592Z,7.65
2018-04-29T23:53:05.036Z,6.07
2018-04-29T23:55:32.457Z,6.90
2018-04-29T23:58:00.691Z,9.25
